Texas Valley, New York
Current Conditions -  °F | °C
As of 6:35 PM on Saturday 25 Oct 2014 (Local Time) from KN03 Reporting Station
Broken Clouds Broken Clouds  
Wind Chill: 16°   Ceiling: 8500
Heat Index: 16°   Visibility: 10mi
Dew Point:   Wind: 12mph
Humidity: 63%   Direction: 300°WNW
Pressure: 29.6"   Gusts: 17mph
Location:  42.4596°N, 76.0658°W
Report Text: KN03 252235Z AUTO 30010G15KT 258V328 10SM SCT048 SCT065 BKN085 16/09 A2960 RMK AO2
Loading
Personal Weather Stations






























Interactive Weather Map
Tropical Storm Tracking
New forecast layout! Learn more

10-Day Weather Forecast

Advertisements
Track Severe Weather on mobile